createdAt,value
2019-06-10T00:00:41.976Z,2.73
2019-06-10T00:03:11.837Z,2.30
2019-06-10T00:05:41.487Z,2.33
2019-06-10T00:08:11.804Z,2.67
2019-06-10T00:10:42.154Z,2.40
2019-06-10T00:13:11.783Z,2.20
2019-06-10T00:15:41.256Z,2.27
2019-06-10T00:18:33.353Z,2.40
2019-06-10T00:20:41.172Z,2.30
2019-06-10T00:23:12.288Z,2.13
2019-06-10T00:25:41.476Z,2.17
2019-06-10T00:28:11.967Z,2.57
2019-06-10T00:30:41.545Z,2.53
2019-06-10T00:33:12.668Z,2.00
2019-06-10T00:35:41.410Z,2.37
2019-06-10T00:38:13.783Z,3.07
2019-06-10T00:40:41.548Z,2.73
2019-06-10T00:43:13.603Z,2.77
2019-06-10T00:45:42.500Z,2.23
2019-06-10T00:48:24.313Z,3.00
2019-06-10T00:50:41.925Z,2.80
2019-06-10T00:53:14.043Z,2.90
2019-06-10T00:55:41.894Z,2.87
2019-06-10T00:58:13.702Z,3.13
2019-06-10T01:00:41.716Z,2.30
2019-06-10T01:03:13.497Z,2.60
2019-06-10T01:05:42.013Z,3.03
2019-06-10T01:08:15.075Z,2.30
2019-06-10T01:10:43.825Z,2.70
2019-06-10T01:13:14.020Z,2.63
2019-06-10T01:15:42.700Z,2.13
2019-06-10T01:18:30.587Z,2.40
2019-06-10T01:20:41.923Z,2.83
2019-06-10T01:23:13.816Z,2.47
2019-06-10T01:25:42.150Z,1.93
2019-06-10T01:28:14.566Z,2.00
2019-06-10T01:30:41.951Z,2.43
2019-06-10T01:33:12.752Z,2.30
2019-06-10T01:35:41.655Z,2.37
2019-06-10T01:38:12.830Z,2.40
2019-06-10T01:40:42.294Z,2.23
2019-06-10T01:43:14.019Z,2.43
2019-06-10T01:45:42.067Z,2.00
2019-06-10T01:48:13.076Z,2.27
2019-06-10T01:50:41.465Z,2.30
2019-06-10T01:53:13.774Z,2.60
2019-06-10T01:55:41.773Z,2.17
2019-06-10T01:58:14.416Z,2.50
2019-06-10T02:00:41.829Z,2.20
2019-06-10T02:03:13.299Z,2.53
2019-06-10T02:05:41.914Z,2.40
2019-06-10T02:08:11.707Z,2.77
2019-06-10T02:10:41.636Z,2.33
2019-06-10T02:13:12.110Z,2.30
2019-06-10T02:15:41.096Z,2.27
2019-06-10T02:18:11.896Z,2.37
2019-06-10T02:20:41.215Z,2.30
2019-06-10T02:23:12.254Z,2.20
2019-06-10T02:25:41.283Z,2.30
2019-06-10T02:28:13.082Z,1.87
2019-06-10T02:30:50.280Z,2.37
2019-06-10T02:33:12.757Z,2.03
2019-06-10T02:35:48.548Z,2.20
2019-06-10T02:38:16.961Z,2.03
2019-06-10T02:40:43.231Z,2.23
2019-06-10T02:43:17.447Z,2.57
2019-06-10T02:45:44.638Z,2.17
2019-06-10T02:48:16.129Z,2.13
2019-06-10T02:50:54.012Z,2.10
2019-06-10T02:53:28.462Z,2.63
2019-06-10T02:55:53.853Z,2.70
2019-06-10T02:58:30.464Z,2.40
2019-06-10T03:00:54.654Z,2.77
2019-06-10T03:03:35.914Z,2.53
2019-06-10T03:05:54.215Z,2.63
2019-06-10T03:08:28.711Z,2.00
2019-06-10T03:10:54.666Z,2.10
2019-06-10T03:13:25.502Z,2.43
2019-06-10T03:15:54.260Z,2.30
2019-06-10T03:18:24.741Z,2.20
2019-06-10T03:20:53.632Z,2.00
2019-06-10T03:23:23.322Z,1.90
2019-06-10T03:25:52.849Z,2.40
2019-06-10T03:28:23.641Z,2.43
2019-06-10T03:30:55.251Z,2.90
2019-06-10T03:33:27.733Z,2.00
2019-06-10T03:35:52.964Z,2.30
2019-06-10T03:38:23.651Z,2.33
2019-06-10T03:40:52.516Z,2.33
2019-06-10T03:43:23.425Z,2.47
2019-06-10T03:45:53.084Z,2.50
2019-06-10T03:48:24.124Z,2.43
2019-06-10T03:50:52.501Z,2.00
2019-06-10T03:53:21.968Z,2.40
2019-06-10T03:55:52.640Z,2.40
2019-06-10T03:58:23.804Z,2.40
2019-06-10T04:00:52.320Z,2.73
2019-06-10T04:03:23.806Z,2.53
2019-06-10T04:05:52.682Z,2.60
2019-06-10T04:08:22.434Z,2.70
2019-06-10T04:10:52.212Z,2.30
2019-06-10T04:13:23.656Z,2.40
2019-06-10T04:15:53.293Z,2.37
2019-06-10T04:18:24.673Z,2.60
2019-06-10T04:20:52.847Z,2.30
2019-06-10T04:23:23.827Z,2.43
2019-06-10T04:25:52.749Z,2.47
2019-06-10T04:28:24.124Z,2.60
2019-06-10T04:30:53.586Z,2.10
2019-06-10T04:33:23.287Z,2.87
2019-06-10T04:35:52.963Z,2.57
2019-06-10T04:38:23.356Z,2.53
2019-06-10T04:40:52.619Z,2.90
2019-06-10T04:43:23.393Z,2.80
2019-06-10T04:45:52.761Z,2.50
2019-06-10T04:48:23.523Z,2.40
2019-06-10T04:50:53.404Z,2.63
2019-06-10T04:53:23.731Z,2.90
2019-06-10T04:55:52.699Z,2.50
2019-06-10T04:58:23.878Z,2.73
2019-06-10T05:00:52.340Z,2.87
2019-06-10T05:03:23.534Z,3.00
2019-06-10T05:05:52.632Z,3.20
2019-06-10T05:08:23.515Z,3.00
2019-06-10T05:10:52.944Z,3.63
2019-06-10T05:13:23.788Z,3.60
2019-06-10T05:15:52.708Z,3.47
2019-06-10T05:18:23.940Z,3.20
2019-06-10T05:20:58.282Z,3.57
2019-06-10T05:23:23.871Z,3.27
2019-06-10T05:25:56.197Z,4.43
2019-06-10T05:28:25.615Z,3.37
2019-06-10T05:30:53.894Z,3.60
2019-06-10T05:33:24.037Z,4.10
2019-06-10T05:35:53.101Z,3.53
2019-06-10T05:38:23.979Z,4.17
2019-06-10T05:40:52.254Z,4.10
2019-06-10T05:43:22.325Z,3.70
2019-06-10T05:45:53.026Z,3.53
2019-06-10T05:48:22.669Z,3.77
2019-06-10T05:51:02.667Z,4.17
2019-06-10T05:53:24.510Z,4.07
2019-06-10T05:55:53.096Z,3.73
2019-06-10T05:58:23.535Z,4.03
2019-06-10T06:00:53.119Z,4.40
2019-06-10T06:03:22.969Z,4.27
2019-06-10T06:05:52.614Z,5.13
2019-06-10T06:08:22.828Z,4.20
2019-06-10T06:10:52.764Z,4.53
2019-06-10T06:13:23.229Z,4.83
2019-06-10T06:15:52.778Z,4.73
2019-06-10T06:18:22.566Z,4.83
2019-06-10T06:20:52.635Z,5.00
2019-06-10T06:23:23.128Z,4.80
2019-06-10T06:25:53.189Z,5.37
2019-06-10T06:28:22.957Z,4.83
2019-06-10T06:30:52.802Z,5.50
2019-06-10T06:33:22.129Z,5.20
2019-06-10T06:35:52.413Z,5.17
2019-06-10T06:38:22.453Z,4.57
2019-06-10T06:40:53.681Z,4.90
2019-06-10T06:43:22.235Z,5.30
2019-06-10T06:45:53.131Z,5.33
2019-06-10T06:48:22.729Z,6.00
2019-06-10T06:51:04.491Z,5.67
2019-06-10T06:53:32.236Z,6.10
2019-06-10T06:55:55.874Z,5.27
2019-06-10T06:58:23.264Z,5.80
2019-06-10T07:01:01.365Z,5.33
2019-06-10T07:03:22.989Z,5.40
2019-06-10T07:05:53.039Z,6.60
2019-06-10T07:08:22.827Z,5.33
2019-06-10T07:10:53.085Z,5.47
2019-06-10T07:13:22.216Z,6.20
2019-06-10T07:15:53.315Z,5.57
2019-06-10T07:18:23.214Z,6.00
2019-06-10T07:20:54.051Z,5.67
2019-06-10T07:23:22.923Z,5.10
2019-06-10T07:25:53.191Z,5.63
2019-06-10T07:28:23.023Z,5.40
2019-06-10T07:30:55.263Z,6.10
2019-06-10T07:33:22.724Z,5.83
2019-06-10T07:35:52.491Z,6.30
2019-06-10T07:38:25.423Z,5.40
2019-06-10T07:40:53.027Z,5.80
2019-06-10T07:43:23.119Z,5.30
2019-06-10T07:45:53.371Z,5.87
2019-06-10T07:48:22.344Z,5.70
2019-06-10T07:50:53.187Z,6.23
2019-06-10T07:53:22.277Z,5.30
2019-06-10T07:55:53.405Z,4.80
2019-06-10T07:58:22.462Z,3.73
2019-06-10T08:00:53.404Z,5.17
2019-06-10T08:03:22.497Z,4.87
2019-06-10T08:05:52.525Z,5.50
2019-06-10T08:08:23.524Z,4.83
2019-06-10T08:10:52.915Z,5.20
2019-06-10T08:13:22.659Z,5.30
2019-06-10T08:15:53.200Z,4.13
2019-06-10T08:18:22.587Z,5.27
2019-06-10T08:20:52.793Z,5.37
2019-06-10T08:23:23.684Z,5.17
2019-06-10T08:25:56.571Z,5.30
2019-06-10T08:28:23.166Z,5.17
2019-06-10T08:30:53.277Z,4.50
2019-06-10T08:33:22.858Z,5.20
2019-06-10T08:35:57.302Z,4.90
2019-06-10T08:38:23.091Z,5.03
2019-06-10T08:40:52.474Z,3.50
2019-06-10T08:43:22.582Z,5.57
2019-06-10T08:45:52.919Z,5.30
2019-06-10T08:48:22.783Z,4.40
2019-06-10T08:50:53.044Z,6.50
2019-06-10T08:53:22.771Z,5.43
2019-06-10T08:55:53.613Z,4.13
2019-06-10T08:58:23.159Z,6.43
2019-06-10T09:00:53.453Z,4.20
2019-06-10T09:03:23.330Z,6.17
2019-06-10T09:05:54.424Z,4.23
2019-06-10T09:08:23.549Z,6.23
2019-06-10T09:10:54.968Z,5.80
2019-06-10T09:13:22.808Z,5.27
2019-06-10T09:16:10.174Z,5.43
2019-06-10T09:18:23.223Z,5.23
2019-06-10T09:20:55.679Z,6.13
2019-06-10T09:23:25.552Z,6.90
2019-06-10T09:25:56.929Z,6.17
2019-06-10T09:28:23.603Z,6.33
2019-06-10T09:30:57.880Z,6.23
2019-06-10T09:33:23.130Z,4.63
2019-06-10T09:35:54.978Z,6.90
2019-06-10T09:38:22.501Z,5.67
2019-06-10T09:41:00.500Z,6.80
2019-06-10T09:43:23.317Z,5.00
2019-06-10T09:45:56.246Z,7.27
2019-06-10T09:48:23.100Z,6.13
2019-06-10T09:50:57.895Z,5.53
2019-06-10T09:53:33.828Z,6.03
2019-06-10T09:55:55.650Z,5.70
2019-06-10T09:58:23.847Z,7.03
2019-06-10T10:00:57.845Z,6.67
2019-06-10T10:03:24.580Z,6.90
2019-06-10T10:06:08.142Z,5.60
2019-06-10T10:08:24.453Z,6.30
2019-06-10T10:10:58.474Z,6.67
2019-06-10T10:13:23.790Z,6.50
2019-06-10T10:15:54.208Z,5.63
2019-06-10T10:18:23.666Z,4.93
2019-06-10T10:20:58.412Z,6.23
2019-06-10T10:23:22.982Z,5.50
2019-06-10T10:25:57.072Z,7.07
2019-06-10T10:28:26.568Z,6.53
2019-06-10T10:30:57.913Z,6.40
2019-06-10T10:33:29.926Z,5.20
2019-06-10T10:35:56.279Z,4.83
2019-06-10T10:38:25.026Z,6.63
2019-06-10T10:40:58.572Z,6.03
2019-06-10T10:43:32.673Z,6.63
2019-06-10T10:46:00.114Z,5.50
2019-06-10T10:48:25.307Z,5.10
2019-06-10T10:50:56.037Z,6.27
2019-06-10T10:53:24.612Z,5.57
2019-06-10T10:55:53.589Z,4.57
2019-06-10T10:58:22.919Z,6.57
2019-06-10T11:00:56.243Z,6.77
2019-06-10T11:03:22.895Z,7.10
2019-06-10T11:05:59.389Z,6.37
2019-06-10T11:08:23.059Z,6.53
2019-06-10T11:10:57.157Z,6.23
2019-06-10T11:13:23.953Z,6.07
2019-06-10T11:15:55.353Z,5.60
2019-06-10T11:18:23.131Z,6.43
2019-06-10T11:20:51.903Z,6.90
2019-06-10T11:23:22.833Z,6.20
2019-06-10T11:25:55.196Z,5.43
2019-06-10T11:28:22.832Z,6.40
2019-06-10T11:30:56.378Z,7.20
2019-06-10T11:33:22.682Z,6.80
2019-06-10T11:35:55.298Z,7.33
2019-06-10T11:38:23.451Z,7.33
2019-06-10T11:40:56.347Z,7.57
2019-06-10T11:43:22.914Z,6.63
2019-06-10T11:45:57.561Z,6.67
2019-06-10T11:48:23.931Z,6.70
2019-06-10T11:50:56.703Z,7.30
2019-06-10T11:53:23.110Z,6.43
2019-06-10T11:55:51.844Z,7.07
2019-06-10T11:58:22.465Z,6.40
2019-06-10T12:00:55.670Z,7.63
2019-06-10T12:03:23.029Z,6.70
2019-06-10T12:05:55.772Z,6.13
2019-06-10T12:08:23.691Z,6.80
2019-06-10T12:10:58.278Z,6.73
2019-06-10T12:13:23.206Z,6.67
2019-06-10T12:16:49.427Z,6.40
2019-06-10T12:18:23.095Z,5.93
2019-06-10T12:20:55.988Z,6.50
2019-06-10T12:23:22.525Z,6.47
2019-06-10T12:25:54.553Z,5.37
2019-06-10T12:28:21.706Z,6.10
2019-06-10T12:30:54.433Z,5.97
2019-06-10T12:33:24.737Z,6.20
2019-06-10T12:35:54.374Z,5.47
2019-06-10T12:38:22.682Z,5.73
2019-06-10T12:40:55.991Z,4.70
2019-06-10T12:43:25.441Z,5.40
2019-06-10T12:45:55.909Z,4.83
2019-06-10T12:48:24.581Z,5.47
2019-06-10T12:50:55.605Z,4.77
2019-06-10T12:53:23.732Z,4.73
2019-06-10T12:55:55.175Z,5.17
2019-06-10T12:58:23.111Z,5.50
2019-06-10T13:00:53.195Z,5.23
2019-06-10T13:03:23.755Z,6.13
2019-06-10T13:05:53.241Z,5.40
2019-06-10T13:08:24.158Z,4.83
2019-06-10T13:10:53.435Z,3.90
2019-06-10T13:13:22.662Z,4.30
2019-06-10T13:15:53.167Z,5.50
2019-06-10T13:18:23.797Z,5.00
2019-06-10T13:20:53.808Z,3.40
2019-06-10T13:23:28.472Z,3.67
2019-06-10T13:25:57.949Z,3.77
2019-06-10T13:28:24.641Z,3.87
2019-06-10T13:30:54.428Z,4.27
2019-06-10T13:33:23.897Z,4.50
2019-06-10T13:35:53.732Z,4.50
2019-06-10T13:38:25.642Z,3.70
2019-06-10T13:40:53.439Z,4.40
2019-06-10T13:43:23.371Z,3.80
2019-06-10T13:45:53.191Z,3.50
2019-06-10T13:48:25.641Z,2.87
2019-06-10T13:50:52.952Z,3.80
2019-06-10T13:53:21.829Z,3.40
2019-06-10T13:55:57.001Z,3.40
2019-06-10T13:58:22.992Z,3.90
2019-06-10T14:00:53.637Z,3.63
2019-06-10T14:03:22.938Z,3.53
2019-06-10T14:05:57.706Z,4.07
2019-06-10T14:08:23.261Z,3.87
2019-06-10T14:10:54.157Z,3.57
2019-06-10T14:13:23.632Z,3.97
2019-06-10T14:15:53.373Z,4.07
2019-06-10T14:18:23.432Z,3.67
2019-06-10T14:20:53.448Z,3.97
2019-06-10T14:23:22.417Z,3.70
2019-06-10T14:25:52.570Z,3.73
2019-06-10T14:28:38.793Z,3.47
2019-06-10T14:30:53.743Z,3.60
2019-06-10T14:33:23.436Z,3.90
2019-06-10T14:35:53.443Z,4.23
2019-06-10T14:38:22.436Z,3.23
2019-06-10T14:40:52.476Z,3.50
2019-06-10T14:43:23.283Z,4.00
2019-06-10T14:45:53.498Z,4.40
2019-06-10T14:48:23.480Z,3.80
2019-06-10T14:50:52.540Z,3.33
2019-06-10T14:53:23.064Z,3.50
2019-06-10T14:55:53.244Z,4.17
2019-06-10T14:58:23.151Z,3.70
2019-06-10T15:00:54.398Z,3.20
2019-06-10T15:03:22.539Z,4.20
2019-06-10T15:05:52.883Z,3.60
2019-06-10T15:08:23.047Z,4.03
2019-06-10T15:10:52.719Z,3.83
2019-06-10T15:13:23.563Z,3.90
2019-06-10T15:15:53.182Z,4.00
2019-06-10T15:18:23.571Z,3.37
2019-06-10T15:20:53.647Z,3.70
2019-06-10T15:23:23.613Z,4.30
2019-06-10T15:25:56.023Z,3.77
2019-06-10T15:28:23.653Z,4.60
2019-06-10T15:30:52.898Z,4.10
2019-06-10T15:33:23.715Z,4.30
2019-06-10T15:35:53.301Z,4.13
2019-06-10T15:38:23.231Z,4.30
2019-06-10T15:40:53.096Z,4.10
2019-06-10T15:43:23.383Z,4.27
2019-06-10T15:45:52.969Z,4.43
2019-06-10T15:48:24.924Z,3.67
2019-06-10T15:50:52.386Z,4.53
2019-06-10T15:53:25.387Z,3.57
2019-06-10T15:58:25.747Z,4.03
2019-06-10T16:00:53.495Z,3.53
2019-06-10T16:03:25.529Z,4.30
2019-06-10T16:05:53.197Z,4.80
2019-06-10T16:08:22.522Z,4.40
2019-06-10T16:10:52.646Z,4.10
2019-06-10T16:13:25.620Z,3.20
2019-06-10T16:15:53.362Z,3.80
2019-06-10T16:18:26.055Z,3.70
2019-06-10T16:20:53.182Z,3.07
2019-06-10T16:23:24.592Z,3.03
2019-06-10T16:25:53.452Z,3.57
2019-06-10T16:28:23.461Z,3.90
2019-06-10T16:30:53.828Z,4.30
2019-06-10T16:33:26.063Z,3.87
2019-06-10T16:35:53.269Z,4.03
2019-06-10T16:38:24.229Z,4.63
2019-06-10T16:40:53.748Z,4.30
2019-06-10T16:43:24.465Z,4.97
2019-06-10T16:45:53.229Z,4.27
2019-06-10T16:48:23.486Z,4.33
2019-06-10T16:50:54.313Z,4.10
2019-06-10T16:53:28.157Z,3.77
2019-06-10T16:55:53.281Z,5.17
2019-06-10T16:58:26.209Z,3.87
2019-06-10T17:00:52.572Z,3.50
2019-06-10T17:03:24.871Z,3.23
2019-06-10T17:05:53.281Z,3.77
2019-06-10T17:08:25.895Z,3.20
2019-06-10T17:10:52.879Z,3.47
2019-06-10T17:13:24.030Z,3.53
2019-06-10T17:15:53.883Z,3.87
2019-06-10T17:18:24.685Z,3.20
2019-06-10T17:20:53.689Z,3.33
2019-06-10T17:23:26.620Z,3.60
2019-06-10T17:25:56.329Z,3.43
2019-06-10T17:28:29.003Z,2.97
2019-06-10T17:30:55.734Z,3.10
2019-06-10T17:33:26.155Z,4.27
2019-06-10T17:35:55.089Z,3.60
2019-06-10T17:38:24.704Z,3.43
2019-06-10T17:40:53.577Z,3.13
2019-06-10T17:43:23.321Z,3.70
2019-06-10T17:45:52.761Z,2.90
2019-06-10T17:48:23.761Z,4.62
2019-06-10T17:50:52.625Z,4.53
2019-06-10T17:53:22.389Z,3.90
2019-06-10T17:55:51.328Z,4.50
2019-06-10T17:58:37.256Z,4.67
2019-06-10T18:00:52.936Z,4.40
2019-06-10T18:03:23.156Z,4.63
2019-06-10T18:05:53.287Z,4.27
2019-06-10T18:08:24.309Z,4.33
2019-06-10T18:10:53.785Z,3.83
2019-06-10T18:13:24.561Z,4.50
2019-06-10T18:15:53.610Z,3.80
2019-06-10T18:18:22.577Z,4.03
2019-06-10T18:20:53.693Z,4.00
2019-06-10T18:23:23.145Z,4.27
2019-06-10T18:25:52.892Z,4.28
2019-06-10T18:28:22.677Z,4.87
2019-06-10T18:30:53.215Z,4.20
2019-06-10T18:33:23.003Z,4.33
2019-06-10T18:35:53.332Z,4.70
2019-06-10T18:38:22.248Z,4.77
2019-06-10T18:40:53.298Z,4.50
2019-06-10T18:43:22.983Z,4.63
2019-06-10T18:45:53.225Z,4.77
2019-06-10T18:48:23.108Z,5.27
2019-06-10T18:50:53.418Z,5.07
2019-06-10T18:53:23.470Z,5.13
2019-06-10T18:55:54.872Z,3.80
2019-06-10T18:58:23.149Z,5.17
2019-06-10T19:01:00.639Z,5.43
2019-06-10T19:03:23.418Z,4.70
2019-06-10T19:05:53.034Z,5.03
2019-06-10T19:08:22.521Z,4.90
2019-06-10T19:10:53.643Z,4.77
2019-06-10T19:13:22.623Z,5.03
2019-06-10T19:15:53.175Z,4.57
2019-06-10T19:18:23.242Z,5.87
2019-06-10T19:20:52.976Z,4.50
2019-06-10T19:23:22.924Z,5.10
2019-06-10T19:25:52.404Z,5.53
2019-06-10T19:28:22.770Z,7.40
2019-06-10T19:30:53.334Z,5.90
2019-06-10T19:33:23.521Z,5.37
2019-06-10T19:35:53.158Z,7.23
2019-06-10T19:38:23.087Z,5.40
2019-06-10T19:40:52.368Z,6.23
2019-06-10T19:43:21.371Z,6.13
2019-06-10T19:45:50.237Z,5.83
2019-06-10T19:48:19.065Z,5.50
2019-06-10T19:50:50.443Z,4.67
2019-06-10T19:53:18.436Z,5.10
2019-06-10T19:55:47.753Z,5.37
2019-06-10T19:58:16.547Z,6.70
2019-06-10T20:00:50.920Z,6.23
2019-06-10T20:03:16.413Z,6.90
2019-06-10T20:05:49.251Z,6.57
2019-06-10T20:08:30.159Z,5.53
2019-06-10T20:11:03.273Z,5.10
2019-06-10T20:13:34.311Z,4.80
2019-06-10T20:16:03.319Z,5.10
2019-06-10T20:18:33.238Z,5.37
2019-06-10T20:21:02.730Z,4.50
2019-06-10T20:23:33.364Z,5.13
2019-06-10T20:26:02.294Z,4.47
2019-06-10T20:28:32.148Z,4.27
2019-06-10T20:31:01.063Z,4.80
2019-06-10T20:33:33.722Z,4.43
2019-06-10T20:36:06.299Z,4.70
2019-06-10T20:38:32.558Z,4.40
2019-06-10T20:41:02.597Z,4.60
2019-06-10T20:43:32.867Z,4.40
2019-06-10T20:46:02.919Z,5.00
2019-06-10T20:48:33.254Z,4.57
2019-06-10T20:51:02.924Z,4.13
2019-06-10T20:53:33.804Z,4.30
2019-06-10T20:56:03.725Z,4.30
2019-06-10T20:58:33.270Z,5.20
2019-06-10T21:01:04.707Z,3.73
2019-06-10T21:03:32.632Z,5.00
2019-06-10T21:06:02.991Z,4.97
2019-06-10T21:08:33.175Z,5.43
2019-06-10T21:11:03.014Z,5.10
2019-06-10T21:13:33.002Z,5.30
2019-06-10T21:16:03.586Z,5.70
2019-06-10T21:18:33.117Z,5.37
2019-06-10T21:21:02.050Z,6.50
2019-06-10T21:23:30.877Z,5.47
2019-06-10T21:26:02.489Z,4.87
2019-06-10T21:28:32.457Z,6.00
2019-06-10T21:31:02.894Z,4.03
2019-06-10T21:33:33.179Z,4.43
2019-06-10T21:36:03.958Z,3.80
2019-06-10T21:38:32.342Z,5.10
2019-06-10T21:41:03.270Z,4.83
2019-06-10T21:43:33.067Z,5.30
2019-06-10T21:46:03.749Z,5.70
2019-06-10T21:48:32.516Z,6.50
2019-06-10T21:51:01.265Z,5.70
2019-06-10T21:53:30.031Z,5.70
2019-06-10T21:55:59.182Z,6.47
2019-06-10T21:58:27.903Z,5.80
2019-06-10T22:01:11.621Z,5.40
2019-06-10T22:03:27.221Z,6.20
2019-06-10T22:05:56.281Z,5.77
2019-06-10T22:08:25.091Z,5.37
2019-06-10T22:10:56.386Z,5.77
2019-06-10T22:13:24.292Z,5.43
2019-06-10T22:15:55.265Z,5.37
2019-06-10T22:18:23.463Z,5.70
2019-06-10T22:20:57.023Z,6.20
2019-06-10T22:23:23.203Z,5.67
2019-06-10T22:25:54.271Z,7.03
2019-06-10T22:28:22.847Z,7.00
2019-06-10T22:30:54.263Z,4.30
2019-06-10T22:33:22.582Z,5.67
2019-06-10T22:35:54.540Z,3.67
2019-06-10T22:38:22.249Z,6.97
2019-06-10T22:40:53.633Z,7.53
2019-06-10T22:43:23.567Z,6.57
2019-06-10T22:45:54.219Z,7.73
2019-06-10T22:48:23.021Z,7.90
2019-06-10T22:50:51.753Z,4.23
2019-06-10T22:53:22.968Z,7.60
2019-06-10T22:55:53.027Z,3.97
2019-06-10T22:58:23.640Z,4.80
2019-06-10T23:00:53.222Z,5.67
2019-06-10T23:03:22.253Z,8.13
2019-06-10T23:05:52.272Z,7.13
2019-06-10T23:08:22.998Z,4.20
2019-06-10T23:10:54.682Z,4.27
2019-06-10T23:13:23.173Z,4.43
2019-06-10T23:15:53.986Z,5.93
2019-06-10T23:18:22.567Z,6.73
2019-06-10T23:20:53.911Z,4.53
2019-06-10T23:23:23.320Z,4.37
2019-06-10T23:25:53.697Z,3.80
2019-06-10T23:28:22.629Z,7.03
2019-06-10T23:30:55.310Z,4.43
2019-06-10T23:33:22.907Z,3.93
2019-06-10T23:35:52.611Z,4.53
2019-06-10T23:38:23.617Z,5.53
2019-06-10T23:40:52.784Z,5.17
2019-06-10T23:43:22.497Z,7.10
2019-06-10T23:45:51.554Z,5.53
2019-06-10T23:48:22.589Z,4.87
2019-06-10T23:50:54.105Z,4.60
2019-06-10T23:53:23.245Z,4.63
2019-06-10T23:55:53.419Z,4.50
2019-06-10T23:58:24.956Z,7.23
